Time;durP1;ratioP1;P1;durP2;ratioP2;P2;SDS_P1;SDS_P2;PMS_P1;PMS_P2;Temp;Humidity;BMP_temperature;BMP_pressure;BME280_temperature;BME280_humidity;BME280_pressure;Samples;Min_cycle;Max_cycle;Signal;HPM_P1;HPM_P2
2022/02/25 00:02:17;;;;;;;2.45;0.63;;;10.00;99.90;;;;;;5052633;28;20029;-85
2022/02/25 00:04:42;;;;;;;2.25;0.60;;;9.90;99.90;;;;;;5052391;28;20508;-85
2022/02/25 00:07:08;;;;;;;2.85;0.50;;;10.00;99.90;;;;;;5052399;28;20021;-85
2022/02/25 00:09:34;;;;;;;1.77;0.70;;;10.00;99.90;;;;;;5052790;28;20021;-85
2022/02/25 00:12:00;;;;;;;2.38;0.70;;;10.00;99.90;;;;;;5052408;28;20510;-85
2022/02/25 00:14:25;;;;;;;1.67;0.73;;;10.00;99.90;;;;;;5052339;28;20087;-85
2022/02/25 00:16:51;;;;;;;1.95;0.68;;;9.90;99.90;;;;;;5052306;28;20059;-85
2022/02/25 00:19:18;;;;;;;1.35;0.63;;;9.90;99.90;;;;;;5052639;28;20032;-85
2022/02/25 00:21:45;;;;;;;1.20;0.80;;;9.90;99.90;;;;;;5053457;28;20029;-84
2022/02/25 00:24:11;;;;;;;1.98;0.50;;;9.90;99.90;;;;;;5052182;28;20031;-85
2022/02/25 00:26:39;;;;;;;1.52;0.77;;;10.00;99.90;;;;;;5053504;28;20025;-85
2022/02/25 00:29:05;;;;;;;2.65;0.65;;;9.90;99.90;;;;;;5052103;28;20412;-85
2022/02/25 00:31:32;;;;;;;3.63;0.93;;;;;;;;;;5053743;28;20052;-85
2022/02/25 00:33:58;;;;;;;2.65;1.15;;;9.70;99.90;;;;;;5052453;28;20052;-84
2022/02/25 00:36:24;;;;;;;5.03;1.02;;;9.70;99.90;;;;;;5052212;28;20410;-84
2022/02/25 00:38:50;;;;;;;2.72;0.90;;;9.70;99.90;;;;;;5052177;28;20112;-84
2022/02/25 00:41:16;;;;;;;1.45;0.70;;;9.70;99.90;;;;;;5052061;28;20033;-84
2022/02/25 00:43:43;;;;;;;4.07;0.73;;;9.60;99.90;;;;;;5052148;28;20036;-84
2022/02/25 00:46:09;;;;;;;2.97;0.80;;;9.60;99.90;;;;;;5052027;28;20515;-84
2022/02/25 00:48:35;;;;;;;3.05;0.85;;;9.60;99.90;;;;;;5051835;28;20033;-84
2022/02/25 00:51:01;;;;;;;3.15;0.85;;;9.60;99.90;;;;;;5051910;28;20166;-83
2022/02/25 00:53:27;;;;;;;2.53;0.65;;;9.50;99.90;;;;;;5051655;28;20047;-83
2022/02/25 00:55:52;;;;;;;2.22;0.77;;;9.60;99.90;;;;;;5051740;28;20021;-83
2022/02/25 00:58:19;;;;;;;2.72;0.90;;;9.50;99.90;;;;;;5051751;28;20112;-84
2022/02/25 01:00:45;;;;;;;2.15;0.80;;;9.50;99.90;;;;;;5052939;28;20017;-85
2022/02/25 01:03:11;;;;;;;3.85;0.98;;;9.50;99.90;;;;;;5050076;28;20087;-85
2022/02/25 01:05:37;;;;;;;3.38;0.98;;;9.50;99.90;;;;;;5015540;28;20473;-85
2022/02/25 01:08:07;;;;;;;2.35;0.90;;;9.40;99.90;;;;;;5033298;28;20061;-85
2022/02/25 01:10:35;;;;;;;1.98;0.80;;;9.40;99.90;;;;;;5015398;28;20068;-85
2022/02/25 01:13:01;;;;;;;3.88;0.80;;;9.40;99.90;;;;;;5015311;28;20024;-85
2022/02/25 01:15:27;;;;;;;4.43;1.00;;;9.40;99.90;;;;;;5015871;28;20527;-85
2022/02/25 01:17:53;;;;;;;2.63;0.90;;;9.40;99.90;;;;;;5015314;28;20059;-85
2022/02/25 01:20:18;;;;;;;3.45;0.85;;;9.40;99.90;;;;;;5015457;28;20037;-85
2022/02/25 01:22:45;;;;;;;2.35;0.75;;;9.40;99.90;;;;;;5015732;28;20026;-85
2022/02/25 01:25:12;;;;;;;2.78;0.90;;;9.40;99.90;;;;;;5015209;28;20132;-85
2022/02/25 01:27:42;;;;;;;3.38;0.88;;;9.30;99.90;;;;;;5015901;28;20025;-85
2022/02/25 01:30:09;;;;;;;3.58;0.93;;;9.30;99.90;;;;;;5033159;28;20473;-85
2022/02/25 01:32:35;;;;;;;2.10;0.70;;;9.30;99.90;;;;;;5015060;28;20029;-85
2022/02/25 01:35:02;;;;;;;3.85;0.90;;;9.30;99.90;;;;;;5015839;28;20022;-85
2022/02/25 01:37:28;;;;;;;2.83;0.73;;;9.20;99.90;;;;;;5015114;28;20486;-86
2022/02/25 01:39:54;;;;;;;2.80;0.88;;;9.20;99.90;;;;;;5015066;28;20032;-85
2022/02/25 01:42:20;;;;;;;1.25;0.65;;;9.20;99.90;;;;;;5015079;28;20028;-85
2022/02/25 01:44:46;;;;;;;3.10;0.70;;;9.20;99.90;;;;;;5015000;28;20030;-85
2022/02/25 01:47:14;;;;;;;2.40;0.77;;;9.20;99.90;;;;;;5014913;28;20044;-85
2022/02/25 01:49:41;;;;;;;1.73;0.63;;;9.20;99.90;;;;;;5032637;28;20017;-86
2022/02/25 01:52:12;;;;;;;2.17;0.70;;;9.10;99.90;;;;;;5015616;28;20018;-85
2022/02/25 01:54:40;;;;;;;4.03;0.80;;;9.10;99.90;;;;;;5014994;28;20028;-86
2022/02/25 01:57:09;;;;;;;2.45;0.90;;;9.10;99.90;;;;;;5014942;28;20112;-85
2022/02/25 01:59:37;;;;;;;1.63;0.70;;;9.10;99.90;;;;;;5015237;28;20021;-85
2022/02/25 02:02:03;;;;;;;1.50;0.47;;;9.10;99.90;;;;;;5014923;28;20397;-85
2022/02/25 02:04:30;;;;;;;1.85;0.82;;;9.00;99.90;;;;;;5038344;28;20045;-85
2022/02/25 02:06:56;;;;;;;2.58;0.80;;;9.00;99.90;;;;;;5054145;28;20056;-85
2022/02/25 02:09:22;;;;;;;4.35;1.00;;;9.00;99.90;;;;;;5054813;28;20549;-85
2022/02/25 02:11:51;;;;;;;6.90;1.00;;;9.00;99.90;;;;;;5056392;28;20021;-85
2022/02/25 02:14:19;;;;;;;3.38;0.77;;;9.00;99.90;;;;;;5056241;28;20460;-85
2022/02/25 02:16:47;;;;;;;3.00;0.80;;;9.00;99.90;;;;;;5054789;28;20473;-86
2022/02/25 02:19:13;;;;;;;3.08;0.90;;;9.00;99.90;;;;;;5054647;28;20024;-86
2022/02/25 02:21:51;;;;;;;7.25;1.25;;;8.90;99.90;;;;;;5054787;28;20061;-85
2022/02/25 02:24:17;;;;;;;3.05;0.70;;;8.90;99.90;;;;;;5056333;28;20366;-86
2022/02/25 02:26:44;;;;;;;2.50;0.57;;;8.90;99.90;;;;;;5056207;28;20082;-86
2022/02/25 02:29:10;;;;;;;2.35;0.90;;;8.90;99.90;;;;;;5055764;28;20029;-85
2022/02/25 02:31:37;;;;;;;5.70;1.40;;;8.90;99.90;;;;;;5054433;28;20515;-85
2022/02/25 02:34:04;;;;;;;1.98;0.75;;;8.90;99.90;;;;;;5054928;28;20055;-86
2022/02/25 02:36:30;;;;;;;3.80;0.88;;;8.90;99.90;;;;;;5054353;28;20031;-85
2022/02/25 02:38:56;;;;;;;2.17;0.80;;;8.80;99.90;;;;;;5054362;28;20116;-85
2022/02/25 02:41:22;;;;;;;2.70;0.90;;;8.90;99.90;;;;;;5054272;28;20504;-85
2022/02/25 02:43:47;;;;;;;3.38;0.90;;;8.80;99.90;;;;;;5055444;28;20393;-85
2022/02/25 02:46:13;;;;;;;3.10;0.90;;;8.80;99.90;;;;;;5055482;28;20024;-85
2022/02/25 02:48:41;;;;;;;4.63;0.90;;;8.80;99.90;;;;;;5054082;28;20029;-85
2022/02/25 02:51:08;;;;;;;2.78;0.70;;;8.80;99.90;;;;;;5055354;28;20021;-85
2022/02/25 02:53:34;;;;;;;2.72;0.70;;;8.80;99.90;;;;;;5053954;28;20017;-85
2022/02/25 02:56:01;;;;;;;1.70;0.73;;;8.80;99.90;;;;;;5054004;28;20025;-86
2022/02/25 02:58:26;;;;;;;2.90;0.90;;;8.80;99.90;;;;;;5054002;28;20029;-85
2022/02/25 03:00:53;;;;;;;1.90;0.80;;;8.80;99.90;;;;;;5053901;28;20392;-85
2022/02/25 03:03:19;;;;;;;3.60;0.90;;;8.70;99.90;;;;;;5051324;28;20053;-85
2022/02/25 03:05:45;;;;;;;4.22;0.90;;;8.80;99.90;;;;;;5017375;28;20033;-85
2022/02/25 03:08:11;;;;;;;2.42;0.90;;;8.70;99.90;;;;;;5017296;28;20061;-85
2022/02/25 03:10:39;;;;;;;3.25;0.70;;;8.70;99.90;;;;;;5017392;28;20437;-86
2022/02/25 03:13:06;;;;;;;4.10;1.00;;;8.70;99.90;;;;;;5017241;28;20334;-85
2022/02/25 03:15:31;;;;;;;2.75;0.70;;;8.70;99.90;;;;;;5035004;28;20473;-85
2022/02/25 03:17:57;;;;;;;4.50;0.77;;;8.70;99.90;;;;;;5016120;28;20026;-85
2022/02/25 03:20:24;;;;;;;2.67;0.80;;;8.60;99.90;;;;;;5034817;28;20025;-85
2022/02/25 03:22:51;;;;;;;3.50;1.02;;;8.60;99.90;;;;;;5034853;28;20393;-85
2022/02/25 03:25:18;;;;;;;5.25;1.10;;;8.60;99.90;;;;;;5017003;28;20034;-85
2022/02/25 03:27:44;;;;;;;2.13;0.93;;;8.60;99.90;;;;;;5016933;28;20031;-85
2022/02/25 03:30:12;;;;;;;2.50;0.88;;;8.60;99.90;;;;;;5034696;28;20071;-85
2022/02/25 03:32:38;;;;;;;3.10;0.80;;;8.60;99.90;;;;;;5016809;28;20018;-86
2022/02/25 03:35:05;;;;;;;4.32;1.08;;;8.50;99.90;;;;;;5016844;28;20024;-86
2022/02/25 03:37:31;;;;;;;2.53;0.95;;;8.60;99.90;;;;;;5035143;28;20416;-86
2022/02/25 03:39:57;;;;;;;3.90;1.08;;;8.50;99.90;;;;;;5016665;28;20025;-85
2022/02/25 03:42:23;;;;;;;3.10;0.80;;;8.50;99.90;;;;;;5016758;28;20044;-85
2022/02/25 03:44:49;;;;;;;4.72;1.15;;;8.50;99.90;;;;;;5016629;28;20021;-85
2022/02/25 03:47:16;;;;;;;4.40;1.00;;;8.50;99.90;;;;;;5016608;28;20033;-85
2022/02/25 03:49:42;;;;;;;3.80;1.02;;;8.50;99.90;;;;;;5034248;28;20112;-85
2022/02/25 03:52:08;;;;;;;5.97;1.10;;;8.50;99.90;;;;;;5016426;28;20017;-85
2022/02/25 03:54:34;;;;;;;2.13;0.80;;;8.50;99.90;;;;;;5016469;28;20488;-85
2022/02/25 03:57:00;;;;;;;5.95;1.40;;;8.40;99.90;;;;;;5017263;28;20017;-85
2022/02/25 03:59:26;;;;;;;3.05;0.73;;;8.40;99.90;;;;;;5016347;28;20473;-85
2022/02/25 04:01:52;;;;;;;5.15;0.82;;;8.40;99.90;;;;;;5016356;28;20029;-85
2022/02/25 04:04:23;;;;;;;6.57;1.23;;;8.40;99.90;;;;;;5036230;28;20049;-85
2022/02/25 04:06:50;;;;;;;4.50;1.10;;;8.40;99.90;;;;;;5052593;28;20036;-85
2022/02/25 04:09:18;;;;;;;2.38;0.77;;;8.40;99.90;;;;;;5052622;28;20028;-85
2022/02/25 04:11:54;;;;;;;2.75;1.00;;;8.40;99.90;;;;;;5052538;28;20021;-85
2022/02/25 04:14:21;;;;;;;3.53;0.98;;;8.40;99.90;;;;;;5052521;28;20538;-85
2022/02/25 04:16:48;;;;;;;3.60;1.13;;;8.40;99.90;;;;;;5052456;28;20017;-85
2022/02/25 04:19:14;;;;;;;5.35;1.17;;;8.30;99.90;;;;;;5052403;28;20037;-85
2022/02/25 04:21:40;;;;;;;4.25;1.10;;;8.30;99.90;;;;;;5052375;28;20031;-85
2022/02/25 04:24:06;;;;;;;4.55;1.13;;;8.30;99.90;;;;;;5052420;28;20478;-85
2022/02/25 04:26:31;;;;;;;4.80;1.13;;;8.30;99.90;;;;;;5052441;28;20044;-85
2022/02/25 04:28:57;;;;;;;3.55;0.82;;;8.30;99.90;;;;;;5051897;28;20031;-85
2022/02/25 04:31:23;;;;;;;4.40;1.10;;;8.30;99.90;;;;;;5053160;28;20074;-85
2022/02/25 04:33:49;;;;;;;5.63;1.00;;;8.30;99.90;;;;;;5052219;28;20091;-85
2022/02/25 04:36:14;;;;;;;4.00;0.90;;;8.20;99.90;;;;;;5052268;28;20480;-84
2022/02/25 04:38:40;;;;;;;2.80;0.95;;;8.20;99.90;;;;;;5052135;28;20074;-85
2022/02/25 04:41:06;;;;;;;5.78;1.15;;;8.20;99.90;;;;;;5052076;28;20025;-85
2022/02/25 04:43:32;;;;;;;3.72;1.20;;;8.20;99.90;;;;;;5052006;28;20086;-85
2022/02/25 04:45:59;;;;;;;4.22;1.00;;;8.20;99.90;;;;;;5051999;28;20029;-86
2022/02/25 04:48:26;;;;;;;7.20;0.90;;;8.20;99.90;;;;;;5051934;28;20025;-85
2022/02/25 04:50:52;;;;;;;3.13;0.80;;;8.20;99.90;;;;;;5052012;28;20028;-85
2022/02/25 04:53:18;;;;;;;6.00;1.20;;;8.20;99.90;;;;;;5052137;28;20017;-85
2022/02/25 04:55:46;;;;;;;4.57;1.02;;;8.20;99.90;;;;;;5051902;28;20498;-85
2022/02/25 04:58:13;;;;;;;2.90;1.00;;;8.20;99.90;;;;;;5051979;28;20083;-85
2022/02/25 05:00:39;;;;;;;5.03;1.13;;;8.20;99.90;;;;;;5052190;28;20029;-85
2022/02/25 05:03:05;;;;;;;3.97;1.00;;;8.20;99.90;;;;;;5050009;28;20032;-85
2022/02/25 05:05:30;;;;;;;3.50;1.00;;;8.10;99.90;;;;;;5015541;28;20025;-85
2022/02/25 05:07:58;;;;;;;3.05;0.98;;;8.10;99.90;;;;;;5015370;28;20025;-85
2022/02/25 05:10:26;;;;;;;4.32;0.93;;;8.20;99.90;;;;;;5033046;28;20384;-84
2022/02/25 05:12:52;;;;;;;3.63;1.05;;;8.20;99.90;;;;;;5015309;28;20061;-85
2022/02/25 05:20:47;;;;;;;3.78;1.02;;;8.20;99.90;;;;;;5033778;28;20507;-85
2022/02/25 05:23:12;;;;;;;5.50;0.93;;;8.20;99.90;;;;;;5015646;28;20029;-85
2022/02/25 05:25:39;;;;;;;4.20;1.25;;;8.20;99.90;;;;;;5015511;28;20036;-85
2022/02/25 05:28:06;;;;;;;4.35;1.20;;;8.20;99.90;;;;;;5015354;28;20032;-85
2022/02/25 05:30:32;;;;;;;2.78;1.15;;;8.10;99.90;;;;;;5015421;28;20025;-85
2022/02/25 05:32:58;;;;;;;6.07;1.30;;;8.10;99.90;;;;;;5032991;28;20418;-84
2022/02/25 05:35:24;;;;;;;3.83;1.23;;;8.10;99.90;;;;;;5015225;28;20121;-85
2022/02/25 05:37:50;;;;;;;4.65;1.00;;;8.10;99.90;;;;;;5033013;28;20101;-85
2022/02/25 05:40:17;;;;;;;4.60;1.02;;;8.10;99.90;;;;;;5015687;28;20060;-85
2022/02/25 05:42:44;;;;;;;5.57;1.20;;;8.10;99.90;;;;;;5019090;28;20035;-85
2022/02/25 05:45:10;;;;;;;4.28;1.02;;;8.10;99.90;;;;;;5019078;28;20071;-85
2022/02/25 05:47:36;;;;;;;4.65;1.60;;;8.10;99.90;;;;;;5018955;28;20029;-85
2022/02/25 05:50:05;;;;;;;6.18;1.30;;;8.10;99.90;;;;;;5019024;28;20120;-84
2022/02/25 05:52:30;;;;;;;5.85;1.23;;;8.00;99.90;;;;;;5036819;28;20025;-85
2022/02/25 05:54:56;;;;;;;5.90;1.30;;;8.00;99.90;;;;;;5019115;28;20032;-85
2022/02/25 05:57:22;;;;;;;5.40;1.17;;;8.00;99.90;;;;;;5019148;28;20048;-85
2022/02/25 05:59:47;;;;;;;5.18;1.20;;;8.00;99.90;;;;;;5018816;28;20116;-84
2022/02/25 06:02:13;;;;;;;4.28;1.00;;;8.00;99.90;;;;;;5018737;28;20025;-84
2022/02/25 06:04:39;;;;;;;4.88;1.40;;;8.00;99.90;;;;;;5044401;28;20049;-84
2022/02/25 06:07:05;;;;;;;5.18;1.20;;;8.00;99.90;;;;;;5054934;28;20017;-85
2022/02/25 06:09:31;;;;;;;5.93;1.20;;;8.00;99.90;;;;;;5055032;28;20036;-85
2022/02/25 06:11:56;;;;;;;3.10;1.23;;;8.00;99.90;;;;;;5055065;28;20021;-85
2022/02/25 06:14:22;;;;;;;3.78;1.35;;;8.00;99.90;;;;;;5055010;28;20401;-85
2022/02/25 06:16:48;;;;;;;4.82;1.27;;;8.00;99.90;;;;;;5055022;28;20417;-85
2022/02/25 06:19:14;;;;;;;6.75;1.77;;;7.90;99.90;;;;;;5054937;28;20029;-84
2022/02/25 06:21:39;;;;;;;4.65;1.52;;;7.90;99.90;;;;;;5055070;28;20173;-85
2022/02/25 06:24:05;;;;;;;6.38;1.50;;;7.90;99.90;;;;;;5056017;28;20021;-85
2022/02/25 06:26:31;;;;;;;6.60;1.98;;;7.90;99.90;;;;;;5055250;28;20503;-85
2022/02/25 06:28:58;;;;;;;7.13;2.15;;;7.90;99.90;;;;;;5054541;28;20119;-85
2022/02/25 06:31:24;;;;;;;8.00;2.00;;;7.90;99.90;;;;;;5054669;28;20036;-85
2022/02/25 06:33:50;;;;;;;8.02;2.38;;;7.90;99.90;;;;;;5054625;28;20021;-85
2022/02/25 06:36:15;;;;;;;6.72;2.33;;;7.90;99.90;;;;;;5054577;28;20029;-84
2022/02/25 06:38:41;;;;;;;5.88;2.13;;;7.90;99.90;;;;;;5054458;28;20123;-85
2022/02/25 06:41:07;;;;;;;8.10;2.00;;;7.90;99.90;;;;;;5054499;28;20052;-85
2022/02/25 06:43:33;;;;;;;4.97;2.10;;;7.90;99.90;;;;;;5054427;28;20033;-84
2022/02/25 06:45:58;;;;;;;8.02;2.13;;;7.90;99.90;;;;;;5054529;28;20086;-84
2022/02/25 06:48:24;;;;;;;9.13;2.25;;;8.00;99.90;;;;;;5054214;28;20477;-85
2022/02/25 06:50:50;;;;;;;6.20;1.88;;;8.10;99.90;;;;;;5054441;28;20076;-85
2022/02/25 06:53:17;;;;;;;4.00;1.85;;;8.20;99.90;;;;;;5053991;28;20469;-85
2022/02/25 06:55:43;;;;;;;7.50;1.90;;;8.30;99.90;;;;;;5054279;28;20099;-85
2022/02/25 06:58:09;;;;;;;6.50;2.22;;;8.40;99.90;;;;;;5054134;28;20033;-85
2022/02/25 07:00:37;;;;;;;5.53;1.88;;;8.60;99.90;;;;;;5054118;28;20025;-85
2022/02/25 07:03:05;;;;;;;5.95;1.73;;;8.80;99.90;;;;;;5052489;28;20029;-85
2022/02/25 07:05:32;;;;;;;5.88;2.03;;;9.00;99.90;;;;;;5018364;28;20500;-85
2022/02/25 07:07:58;;;;;;;7.00;1.80;;;9.20;99.90;;;;;;5017835;28;20025;-85
2022/02/25 07:10:24;;;;;;;5.35;1.77;;;9.40;99.90;;;;;;5017431;28;20025;-85
2022/02/25 07:12:50;;;;;;;4.90;1.73;;;;;;;;;;5035487;28;20037;-85
2022/02/25 07:15:16;;;;;;;5.38;1.88;;;;;;;;;;5017291;28;20030;-86
2022/02/25 07:17:42;;;;;;;5.05;1.80;;;9.80;99.90;;;;;;5017413;28;20032;-85
2022/02/25 07:20:09;;;;;;;6.03;1.70;;;10.20;99.90;;;;;;5017182;28;20022;-85
2022/02/25 07:22:37;;;;;;;5.82;1.50;;;10.50;99.90;;;;;;5017169;28;20022;-84
2022/02/25 07:25:03;;;;;;;7.13;1.48;;;10.70;99.90;;;;;;5034867;28;20028;-85
2022/02/25 07:27:29;;;;;;;7.20;1.85;;;10.80;99.90;;;;;;5016920;28;20030;-84
2022/02/25 07:29:55;;;;;;;4.68;1.60;;;10.70;99.90;;;;;;5017088;28;20068;-84
2022/02/25 07:32:21;;;;;;;7.13;1.42;;;10.70;99.90;;;;;;5017033;28;20028;-85
2022/02/25 07:34:46;;;;;;;5.68;1.60;;;11.10;99.90;;;;;;5017812;28;20026;-84
2022/02/25 07:37:12;;;;;;;7.38;1.90;;;10.50;99.90;;;;;;5016910;28;20075;-85
2022/02/25 07:39:38;;;;;;;7.07;1.58;;;10.10;99.90;;;;;;5034575;28;20389;-84
2022/02/25 07:42:04;;;;;;;6.07;1.48;;;9.80;99.90;;;;;;5016744;28;20485;-84
2022/02/25 07:44:30;;;;;;;8.98;1.73;;;9.70;99.90;;;;;;5034517;28;20096;-84
2022/02/25 07:46:56;;;;;;;8.52;1.60;;;9.80;99.90;;;;;;5034468;28;20056;-84
2022/02/25 07:49:22;;;;;;;5.22;1.55;;;10.00;99.90;;;;;;5016561;28;20119;-84
2022/02/25 07:51:51;;;;;;;5.78;1.80;;;10.10;99.90;;;;;;5034314;28;20473;-84
2022/02/25 07:54:19;;;;;;;9.43;1.90;;;10.20;99.90;;;;;;5016551;28;20032;-85
2022/02/25 07:56:45;;;;;;;6.30;1.58;;;10.40;99.90;;;;;;5034218;28;20489;-84
2022/02/25 07:59:12;;;;;;;5.88;1.60;;;10.40;99.90;;;;;;5016503;28;20481;-84
2022/02/25 08:01:38;;;;;;;5.82;1.42;;;10.50;99.90;;;;;;5016481;28;20503;-85
2022/02/25 08:04:04;;;;;;;4.93;1.55;;;10.30;99.90;;;;;;5031884;28;20124;-84
2022/02/25 08:06:31;;;;;;;7.95;1.75;;;10.30;99.90;;;;;;5053047;28;20055;-84
2022/02/25 08:08:56;;;;;;;8.93;1.63;;;10.40;99.90;;;;;;5052655;28;20150;-83
2022/02/25 08:11:22;;;;;;;6.43;1.70;;;10.30;99.90;;;;;;5052622;28;20119;-84
2022/02/25 08:13:48;;;;;;;5.88;1.50;;;10.40;99.90;;;;;;5052550;28;20071;-84
2022/02/25 08:16:13;;;;;;;5.90;1.55;;;10.40;99.90;;;;;;5052490;28;20021;-83
2022/02/25 08:18:39;;;;;;;5.97;1.67;;;10.40;99.90;;;;;;5052473;28;20544;-85
2022/02/25 08:21:05;;;;;;;6.25;1.60;;;10.40;99.90;;;;;;5052410;28;20050;-84
2022/02/25 08:23:31;;;;;;;6.43;1.52;;;10.40;99.90;;;;;;5052396;28;20114;-84
2022/02/25 08:25:56;;;;;;;5.43;1.70;;;10.50;99.90;;;;;;5052695;28;20021;-85
2022/02/25 08:28:22;;;;;;;6.78;1.55;;;10.40;99.90;;;;;;5053609;28;20036;-85
2022/02/25 08:30:48;;;;;;;5.20;1.65;;;10.30;99.90;;;;;;5052997;28;20025;-85
2022/02/25 08:33:14;;;;;;;6.43;1.52;;;10.10;99.90;;;;;;5052452;28;20029;-82
2022/02/25 08:35:41;;;;;;;4.25;1.17;;;9.90;99.90;;;;;;5053542;28;20086;-85
2022/02/25 08:38:08;;;;;;;6.38;1.77;;;9.90;99.90;;;;;;5053527;28;20100;-85
2022/02/25 08:40:35;;;;;;;7.10;1.60;;;10.10;99.90;;;;;;5052189;28;20054;-85
2022/02/25 08:43:02;;;;;;;9.63;1.80;;;10.20;99.90;;;;;;5052122;28;20029;-85
2022/02/25 08:45:29;;;;;;;6.28;1.70;;;10.20;99.90;;;;;;5052516;28;20430;-85
2022/02/25 08:47:55;;;;;;;6.40;1.58;;;10.00;99.90;;;;;;5052014;28;20107;-85
2022/02/25 08:50:21;;;;;;;8.48;1.70;;;9.90;99.90;;;;;;5053385;28;20025;-84
2022/02/25 08:52:52;;;;;;;8.30;1.80;;;10.00;99.90;;;;;;5052007;28;20361;-85
2022/02/25 08:55:19;;;;;;;7.75;1.85;;;10.10;99.90;;;;;;5053530;28;20044;-84
2022/02/25 08:57:45;;;;;;;8.15;1.75;;;10.20;99.90;;;;;;5053474;28;20028;-85
2022/02/25 09:00:15;;;;;;;7.70;1.58;;;10.30;99.90;;;;;;5052256;28;20021;-84
2022/02/25 09:02:41;;;;;;;4.43;1.50;;;10.40;99.90;;;;;;5053335;28;20385;-85
2022/02/25 09:05:08;;;;;;;6.90;1.67;;;10.40;99.90;;;;;;5051876;28;20045;-84
2022/02/25 09:07:34;;;;;;;9.50;1.70;;;10.50;99.90;;;;;;5052204;28;20029;-84
2022/02/25 09:09:59;;;;;;;5.13;1.40;;;10.50;99.90;;;;;;5052427;28;20021;-83
2022/02/25 09:12:25;;;;;;;9.52;1.77;;;10.50;99.90;;;;;;5053230;28;20028;-85
2022/02/25 09:14:52;;;;;;;5.25;1.55;;;10.40;99.90;;;;;;5051842;28;20021;-84
2022/02/25 09:17:18;;;;;;;7.00;1.75;;;10.50;99.90;;;;;;5055832;28;20385;-83
2022/02/25 09:19:45;;;;;;;6.05;1.70;;;10.50;99.90;;;;;;5055989;28;20391;-84
2022/02/25 09:22:11;;;;;;;8.23;1.80;;;10.30;99.90;;;;;;5057062;28;20021;-85
2022/02/25 09:24:37;;;;;;;7.47;1.80;;;10.10;99.90;;;;;;5056200;28;20043;-84
2022/02/25 09:27:03;;;;;;;5.80;1.55;;;10.00;99.90;;;;;;5055861;28;20071;-84
2022/02/25 09:29:29;;;;;;;4.88;1.40;;;10.00;99.90;;;;;;5055752;28;20392;-84
2022/02/25 09:31:54;;;;;;;8.98;1.90;;;9.90;99.90;;;;;;5055815;28;20070;-85
2022/02/25 09:34:20;;;;;;;5.53;1.60;;;9.80;99.90;;;;;;5055688;28;20017;-85
2022/02/25 09:36:46;;;;;;;6.68;1.48;;;9.70;99.90;;;;;;5055931;28;20489;-86
2022/02/25 09:39:13;;;;;;;6.75;1.65;;;9.60;99.90;;;;;;5056084;28;20025;-85
2022/02/25 09:41:40;;;;;;;5.20;1.73;;;9.50;99.90;;;;;;5055832;28;20061;-87
2022/02/25 09:44:06;;;;;;;8.07;1.60;;;9.40;99.90;;;;;;5055896;28;20040;-86
2022/02/25 09:46:32;;;;;;;6.45;1.73;;;9.30;99.90;;;;;;5055790;28;20036;-85
2022/02/25 09:49:00;;;;;;;6.65;1.45;;;9.20;99.90;;;;;;5056832;28;20029;-86
2022/02/25 09:51:27;;;;;;;11.68;1.92;;;9.10;99.90;;;;;;5056532;28;20023;-86
2022/02/25 09:53:53;;;;;;;5.57;1.58;;;9.10;99.90;;;;;;5056632;28;20431;-85
2022/02/25 09:56:19;;;;;;;5.78;1.65;;;9.20;99.90;;;;;;5056104;28;20052;-84
2022/02/25 09:58:45;;;;;;;8.13;1.70;;;9.40;99.90;;;;;;5055993;28;20047;-86
2022/02/25 10:01:14;;;;;;;6.93;1.50;;;9.60;99.90;;;;;;5055581;28;20112;-85
2022/02/25 10:03:39;;;;;;;7.28;1.67;;;9.60;99.90;;;;;;5056049;28;20136;-86
2022/02/25 10:06:08;;;;;;;6.55;1.63;;;9.50;99.90;;;;;;5056970;28;20045;-86
2022/02/25 10:08:35;;;;;;;4.10;1.27;;;9.40;99.90;;;;;;5055231;28;20041;-86
2022/02/25 10:11:03;;;;;;;9.00;1.58;;;9.30;99.90;;;;;;5057446;28;20097;-84
2022/02/25 10:13:31;;;;;;;7.88;1.35;;;9.40;99.90;;;;;;5055446;28;20021;-85
2022/02/25 10:16:03;;;;;;;7.72;1.83;;;9.30;99.90;;;;;;5055352;28;20024;-86
2022/02/25 10:18:33;;;;;;;5.32;1.60;;;9.20;99.90;;;;;;5055262;28;20021;-85
2022/02/25 10:21:11;;;;;;;7.90;1.95;;;9.20;99.90;;;;;;5054939;28;20055;-86
2022/02/25 10:23:41;;;;;;;8.90;1.60;;;9.30;99.90;;;;;;5056822;28;20083;-85
2022/02/25 10:26:18;;;;;;;7.25;1.73;;;9.40;99.90;;;;;;5054779;28;20025;-85
2022/02/25 10:28:52;;;;;;;6.18;1.50;;;9.40;99.90;;;;;;5055097;28;20028;-85
2022/02/25 10:31:32;;;;;;;8.57;1.70;;;9.50;99.90;;;;;;5055051;28;20048;-85
2022/02/25 10:34:16;;;;;;;6.20;1.40;;;9.40;99.90;;;;;;5055203;28;20059;-87
2022/02/25 10:36:51;;;;;;;7.85;1.50;;;9.40;99.90;;;;;;5054715;28;20408;-85
2022/02/25 10:39:24;;;;;;;7.28;1.50;;;9.40;99.90;;;;;;5055066;28;20025;-85
2022/02/25 10:42:08;;;;;;;6.97;1.60;;;9.60;99.90;;;;;;5055364;28;20033;-84
2022/02/25 10:44:39;;;;;;;8.95;1.52;;;9.70;99.90;;;;;;5054791;28;20025;-87
2022/02/25 10:47:12;;;;;;;5.97;1.55;;;9.80;99.90;;;;;;5054596;28;20035;-84
2022/02/25 10:49:38;;;;;;;5.82;1.58;;;9.70;99.90;;;;;;5054362;28;20108;-84
2022/02/25 10:52:24;;;;;;;7.53;1.65;;;9.70;99.90;;;;;;5054468;28;20049;-84
2022/02/25 10:54:51;;;;;;;6.38;1.58;;;9.80;99.90;;;;;;5054402;28;20021;-84
2022/02/25 10:57:19;;;;;;;8.10;1.77;;;9.90;99.90;;;;;;5038358;28;20120;-84
2022/02/25 10:59:48;;;;;;;6.57;1.50;;;10.40;99.90;;;;;;5053851;28;20506;-85
2022/02/25 11:02:28;;;;;;;8.52;1.70;;;10.10;99.90;;;;;;5054348;28;20055;-84
2022/02/25 11:05:09;;;;;;;10.40;1.80;;;9.90;99.90;;;;;;5053953;28;20526;-85
2022/02/25 11:07:39;;;;;;;7.53;1.45;;;9.70;99.90;;;;;;5054283;28;20043;-84
2022/02/25 11:10:06;;;;;;;8.50;1.73;;;9.60;99.90;;;;;;5055539;28;20532;-84
2022/02/25 11:12:39;;;;;;;8.65;1.92;;;9.60;99.90;;;;;;5053725;28;20488;-84
2022/02/25 11:15:11;;;;;;;9.85;1.58;;;9.60;99.90;;;;;;5054123;28;20491;-85
2022/02/25 11:17:38;;;;;;;7.45;1.60;;;9.50;99.90;;;;;;5053736;28;20021;-85
2022/02/25 11:20:08;;;;;;;4.13;1.30;;;9.50;99.90;;;;;;5053659;28;20036;-85
2022/02/25 11:22:38;;;;;;;9.25;1.45;;;9.40;99.90;;;;;;5053552;28;20021;-85
2022/02/25 11:25:06;;;;;;;7.88;1.58;;;9.30;99.90;;;;;;5053721;28;20075;-84
2022/02/25 11:27:32;;;;;;;7.25;1.55;;;9.30;99.90;;;;;;5053768;28;20500;-84
2022/02/25 11:30:01;;;;;;;6.00;1.42;;;9.20;99.90;;;;;;5053590;28;20052;-84
2022/02/25 11:32:46;;;;;;;6.32;1.48;;;9.10;99.90;;;;;;5053712;28;20017;-84
2022/02/25 11:35:15;;;;;;;8.70;1.50;;;9.10;99.90;;;;;;5053524;28;20021;-83
2022/02/25 11:37:58;;;;;;;8.32;1.52;;;9.00;99.90;;;;;;5052972;28;20022;-84
2022/02/25 11:40:53;;;;;;;6.45;1.50;;;9.00;99.90;;;;;;5054623;28;20100;-84
2022/02/25 11:43:37;;;;;;;9.13;1.52;;;9.00;99.90;;;;;;5053613;28;20071;-84
2022/02/25 11:46:05;;;;;;;6.90;1.35;;;9.00;99.90;;;;;;5053209;28;20040;-84
2022/02/25 11:48:39;;;;;;;8.07;1.60;;;9.00;99.90;;;;;;5053040;28;20396;-84
2022/02/25 11:51:06;;;;;;;7.20;1.60;;;8.90;99.90;;;;;;5054789;28;20013;-84
2022/02/25 11:53:32;;;;;;;7.75;1.70;;;8.90;99.90;;;;;;5052975;28;20402;-84
2022/02/25 11:56:15;;;;;;;7.65;1.30;;;8.90;99.90;;;;;;5052968;28;20021;-84
2022/02/25 11:58:49;;;;;;;5.13;1.45;;;8.80;99.90;;;;;;5053083;28;20025;-85
2022/02/25 12:01:21;;;;;;;7.20;1.38;;;8.80;99.90;;;;;;5054568;28;20028;-84
2022/02/25 12:04:00;;;;;;;7.13;1.40;;;8.80;99.90;;;;;;5052851;28;20072;-85
2022/02/25 12:06:55;;;;;;;7.40;1.50;;;8.70;99.90;;;;;;5053021;28;20502;-84
2022/02/25 12:09:45;;;;;;;7.78;1.50;;;8.70;99.90;;;;;;5052577;28;20037;-84
2022/02/25 12:12:22;;;;;;;8.68;1.83;;;8.60;99.90;;;;;;5052669;28;20021;-84
2022/02/25 12:15:15;;;;;;;9.55;1.70;;;8.60;99.90;;;;;;5054037;28;20020;-84
2022/02/25 12:17:45;;;;;;;8.50;1.65;;;8.70;99.90;;;;;;5053682;28;20540;-84
2022/02/25 12:20:18;;;;;;;10.43;1.90;;;8.60;99.90;;;;;;5054164;28;20021;-85
2022/02/25 12:23:06;;;;;;;9.20;1.55;;;8.50;99.90;;;;;;5052664;28;20021;-84
2022/02/25 12:25:43;;;;;;;8.82;1.52;;;8.40;99.90;;;;;;5052419;28;20469;-83
2022/02/25 12:28:27;;;;;;;5.78;1.58;;;8.30;99.90;;;;;;5052519;28;20492;-84
2022/02/25 12:31:08;;;;;;;8.63;1.88;;;8.40;99.90;;;;;;5052453;28;20541;-85
2022/02/25 12:33:51;;;;;;;4.57;1.10;;;8.30;99.90;;;;;;5052507;28;20025;-86
2022/02/25 12:36:29;;;;;;;8.25;1.83;;;8.30;99.90;;;;;;5052795;28;20131;-84
2022/02/25 12:39:00;;;;;;;7.60;1.98;;;8.20;99.90;;;;;;5052544;28;20048;-84
2022/02/25 12:41:46;;;;;;;8.88;1.83;;;8.20;99.90;;;;;;5052585;28;20082;-84
2022/02/25 12:44:15;;;;;;;7.25;1.60;;;8.20;99.90;;;;;;5035300;28;20132;-84
2022/02/25 12:46:48;;;;;;;10.02;1.90;;;8.30;99.90;;;;;;5052433;28;20508;-84
2022/02/25 12:49:20;;;;;;;7.65;2.55;;;8.20;99.90;;;;;;5052090;28;20032;-85
2022/02/25 12:51:47;;;;;;;7.55;1.90;;;8.20;99.90;;;;;;5052295;28;20053;-85
2022/02/25 12:54:18;;;;;;;8.68;2.03;;;8.20;99.90;;;;;;5053672;28;20025;-84
2022/02/25 12:56:51;;;;;;;5.90;1.48;;;8.20;99.90;;;;;;5052270;28;20029;-84
2022/02/25 12:59:37;;;;;;;7.20;1.98;;;8.20;99.90;;;;;;5053742;28;20025;-83
2022/02/25 13:02:08;;;;;;;7.45;2.20;;;8.20;99.90;;;;;;5052605;28;20381;-84
2022/02/25 13:04:41;;;;;;;6.35;1.35;;;8.20;99.90;;;;;;5039430;28;20038;-83
2022/02/25 13:07:08;;;;;;;11.93;2.17;;;8.20;99.90;;;;;;5015890;28;20529;-84